• Join FlightAware (Why Join?)
  • Login
  • US Flag 
02:46AM EDT


 

Airport Tracker/Info


-or-


 

Live Flight TrackerFlight Track Log ✈ UAL548 ✈ 09-May-2012 ✈ KIAH - KPIT

Flight Track Log - Related Links

Times and Time Zones

All times are in EDT time to prevent confusion due to time zone crossing. See the UAL548 flight status page for this flight to view local times or setup timezone preferences in your user account.

Time Position Orientation Groundspeed Altitude Reporting Facility
EDT Latitude Longitude Course Direction KTS MPH feet Rate Location/Type
08:26PM 29.9803 -95.3008 23° Northeast 161 185 900  Level Houston Center
08:30PM 30.2339 -95.1753 37° Northeast 251 289 7,600 1,800 Climbing Houston Center
08:31PM 30.3003 -95.1175 37° Northeast 271 312 10,500 2,280 Climbing Houston Center
08:32PM 30.3747 -95.0525 39° Northeast 300 345 12,200 2,100 Climbing Houston Center
08:33PM 30.4517 -94.9806 38° Northeast 334 384 14,800 2,280 Climbing Houston Center
08:34PM 30.5350 -94.9061 34° Northeast 355 409 16,800 1,920 Climbing Houston Center
08:35PM 30.6264 -94.8342 34° Northeast 374 430 18,700 1,980 Climbing Houston Center
08:36PM 30.7197 -94.7622 32° Northeast 395 455 20,800 1,800 Climbing Houston Center
08:37PM 30.8197 -94.6881 35° Northeast 407 468 22,400 1,560 Climbing Houston Center
08:38PM 30.9172 -94.6086 33° Northeast 417 480 24,000 1,500 Climbing Houston Center
08:39PM 31.0239 -94.5289 34° Northeast 438 504 25,300 1,380 Climbing Fort Worth Center
08:40PM 31.1181 -94.4556 34° Northeast 454 522 26,700 1,260 Climbing Fort Worth Center
08:41PM 31.2247 -94.3719 33° Northeast 454 522 27,900 1,140 Climbing Fort Worth Center
08:42PM 31.3333 -94.2883 33° Northeast 459 528 29,000 960 Climbing Fort Worth Center
08:43PM 31.4458 -94.2017 34° Northeast 465 535 29,900 960 Climbing Fort Worth Center
08:44PM 31.5586 -94.1125 33° Northeast 473 544 31,000 1,260 Climbing Fort Worth Center
08:45PM 31.6711 -94.0278 34° Northeast 479 551 32,500 1,260 Climbing Fort Worth Center
08:46PM 31.7856 -93.9381 35° Northeast 479 551 33,600 960 Climbing Fort Worth Center
08:47PM 31.9058 -93.8406 35° Northeast 479 551 34,500 900 Climbing Fort Worth Center
08:48PM 32.0039 -93.7583 33° Northeast 479 551 35,400 840 Climbing Fort Worth Center
08:49PM 32.1283 -93.6625 36° Northeast 479 551 36,200 780 Climbing Fort Worth Center
08:50PM 32.2258 -93.5775 34° Northeast 485 558 37,000 360 Climbing Fort Worth Center
08:51PM 32.3381 -93.4867 34° Northeast 485 558 37,000  Level Fort Worth Center
08:52PM 32.4478 -93.3983 33° Northeast 485 558 37,000  Level Fort Worth Center
08:53PM 32.5578 -93.3122 34° Northeast 480 552 37,000  Level Fort Worth Center
08:54PM 32.6697 -93.2231 34° Northeast 475 547 37,000  Level Fort Worth Center
08:55PM 32.7794 -93.1339 35° Northeast 475 547 37,000  Level Fort Worth Center
08:56PM 32.8850 -93.0472 34° Northeast 475 547 37,000  Level Fort Worth Center
08:57PM 33.0764 -92.8933 35° Northeast 471 542 37,000  Level Memphis Center
08:58PM 33.1825 -92.8047 41° Northeast 471 542 37,000  Level Memphis Center
08:59PM 33.2825 -92.7006 50° Northeast 466 536 37,000  Level Memphis Center
09:00PM 33.3683 -92.5761 51° Northeast 466 536 37,000  Level Memphis Center
09:01PM 33.4519 -92.4511 51° Northeast 476 548 37,000  Level Memphis Center
09:02PM 33.5353 -92.3261 51° Northeast 476 548 37,000  Level Memphis Center
09:03PM 33.6186 -92.2006 53° Northeast 481 554 37,000  Level Memphis Center
09:04PM 33.6997 -92.0725 51° Northeast 481 554 37,000  Level Memphis Center
09:05PM 33.7828 -91.9492 53° Northeast 481 554 37,000  Level Memphis Center
09:06PM 33.8636 -91.8206 54° Northeast 481 554 37,000  Level Memphis Center
09:07PM 33.9467 -91.6844 51° Northeast 473 544 37,000  Level Memphis Center
09:08PM 34.0228 -91.5703 53° Northeast 473 544 37,000  Level Memphis Center
09:09PM 34.1014 -91.4433 52° Northeast 479 551 37,000  Level Memphis Center
09:10PM 34.1836 -91.3164 52° Northeast 479 551 37,000  Level Memphis Center
09:11PM 34.2661 -91.1864 52° Northeast 479 551 37,000  Level Memphis Center
09:12PM 34.3461 -91.0614 52° Northeast 479 551 37,000  Level Memphis Center
09:13PM 34.4281 -90.9339 53° Northeast 484 557 37,000  Level Memphis Center
09:14PM 34.5078 -90.8058 52° Northeast 478 550 37,000  Level Memphis Center
09:15PM 34.5981 -90.6650 54° Northeast 484 557 37,000  Level Memphis Center
09:16PM 34.6756 -90.5364 52° Northeast 478 550 37,000  Level Memphis Center
09:17PM 34.7550 -90.4103 53° Northeast 478 550 37,000  Level Memphis Center
09:18PM 34.8319 -90.2836 52° Northeast 478 550 37,000  Level Memphis Center
09:19PM 34.9133 -90.1569 53° Northeast 473 544 37,000  Level Memphis Center
09:20PM 34.9903 -90.0300 59° Northeast 473 544 37,000  Level Memphis Center
09:21PM 35.0525 -89.9056 68° East 473 544 37,000  Level Memphis Center
09:22PM 35.1039 -89.7531 68° East 473 544 37,000  Level Memphis Center
09:23PM 35.1553 -89.6003 67° East 478 550 37,100  Climbing Memphis Center
09:24PM 35.2106 -89.4369 66° East 478 550 37,000 -60 Descending Memphis Center
09:25PM 35.2636 -89.2917 67° East 478 550 37,000  Level Memphis Center
09:26PM 35.3164 -89.1381 67° East 471 542 37,000  Level Memphis Center
09:27PM 35.3669 -88.9922 68° East 471 542 37,000  Level Memphis Center
09:28PM 35.4172 -88.8411 66° East 471 542 37,000  Level Memphis Center
09:29PM 35.4636 -88.7103 68° East 471 542 37,000  Level Memphis Center
09:30PM 35.5136 -88.5614 67° East 471 542 37,000  Level Memphis Center
09:31PM 35.5636 -88.4147 66° East 471 542 37,000  Level Memphis Center
09:32PM 35.6156 -88.2681 68° East 465 535 37,000  Level Memphis Center
09:33PM 35.6631 -88.1239 64° Northeast 457 526 37,000  Level Memphis Center
09:34PM 35.7186 -87.9817 56° Northeast 451 519 37,000  Level Memphis Center
09:35PM 35.7892 -87.8542 56° Northeast 457 526 37,000  Level Memphis Center
09:36PM 35.8617 -87.7214 56° Northeast 462 532 37,000  Level Memphis Center
09:37PM 35.9397 -87.5778 56° Northeast 462 532 37,000  Level Memphis Center
09:38PM 36.0117 -87.4469 55° Northeast 462 532 37,000  Level Memphis Center
09:39PM 36.0858 -87.3161 56° Northeast 462 532 37,000  Level Memphis Center
09:40PM 36.1575 -87.1822 56° Northeast 462 532 37,000  Level Memphis Center
09:41PM 36.2311 -87.0481 58° Northeast 467 537 37,000  Level Memphis Center
09:42PM 36.3003 -86.9089 56° Northeast 467 537 37,000  Level Memphis Center
09:43PM 36.3736 -86.7744 55° Northeast 472 543 37,000  Level Memphis Center
09:44PM 36.4450 -86.6472 56° Northeast 491 565 37,000  Level Memphis Center
09:45PM 36.5258 -86.4989 56° Northeast 481 554 37,000  Level Memphis Center
09:48PM 36.6822 -86.2036 56° Northeast 483 556 37,000  Level Indianapolis Center
09:49PM 36.7322 -86.1094 56° Northeast 478 550 37,000  Level Indianapolis Center
09:50PM 36.8214 -85.9439 57° Northeast 478 550 37,000  Level Indianapolis Center
09:51PM 36.8800 -85.8289 57° Northeast 478 550 37,000  Level Indianapolis Center
09:52PM 36.9664 -85.6650 57° Northeast 473 544 37,000  Level Indianapolis Center
09:53PM 37.0356 -85.5292 58° Northeast 473 544 37,000  Level Indianapolis Center
09:54PM 37.1022 -85.3956 57° Northeast 466 536 37,000  Level Indianapolis Center
09:55PM 37.1733 -85.2564 57° Northeast 466 536 37,000  Level Indianapolis Center
09:56PM 37.2439 -85.1197 58° Northeast 466 536 37,000  Level Indianapolis Center
09:57PM 37.3125 -84.9828 58° Northeast 461 531 37,000  Level Indianapolis Center
09:58PM 37.3831 -84.8431 56° Northeast 461 531 37,000  Level Indianapolis Center
09:59PM 37.4553 -84.7056 54° Northeast 466 536 37,000  Level Indianapolis Center
10:00PM 37.5294 -84.5758 49° Northeast 466 536 37,000  Level Indianapolis Center
10:01PM 37.6161 -84.4511 48° Northeast 466 536 37,000  Level Indianapolis Center
10:02PM 37.7044 -84.3289 48° Northeast 466 536 37,000  Level Indianapolis Center
10:03PM 37.7908 -84.2061 49° Northeast 466 536 37,000  Level Indianapolis Center
10:04PM 37.8792 -84.0753 48° Northeast 466 536 37,000  Level Indianapolis Center
10:05PM 37.9672 -83.9494 49° Northeast 476 548 37,000  Level Indianapolis Center
10:06PM 38.0636 -83.8075 49° Northeast 476 548 37,000  Level Indianapolis Center
10:07PM 38.1617 -83.6653 50° Northeast 481 554 37,000  Level Indianapolis Center
10:08PM 38.2514 -83.5306 49° Northeast 487 560 37,000  Level Indianapolis Center
10:09PM 38.3411 -83.4008 49° Northeast 487 560 37,000  Level Indianapolis Center
10:10PM 38.4325 -83.2681 51° Northeast 487 560 37,000 -180 Level Indianapolis Center
10:11PM 38.5197 -83.1322 48° Northeast 487 560 36,700 -660 Descending Indianapolis Center
10:12PM 38.6192 -82.9883 49° Northeast 487 560 35,700 -960 Descending Indianapolis Center
10:13PM 38.6958 -82.8733 50° Northeast 482 555 34,800 -960 Descending Indianapolis Center
10:14PM 38.7825 -82.7419 49° Northeast 482 555 33,800 -900 Descending Indianapolis Center
10:15PM 38.8672 -82.6156 50° Northeast 477 549 33,000 -420 Descending Indianapolis Center
10:16PM 38.9494 -82.4889 49° Northeast 472 543 33,000  Level Indianapolis Center
10:17PM 39.0358 -82.3594 50° Northeast 472 543 33,000 -300 Level Indianapolis Center
10:18PM 39.1281 -82.2186 51° Northeast 472 543 32,400 -540 Descending Indianapolis Center
10:19PM 39.2142 -82.0831 50° Northeast 477 549 32,000 -600 Descending Indianapolis Center
10:20PM 39.2981 -81.9553 52° Northeast 477 549 31,200 -1,560 Descending Indianapolis Center
10:22PM 39.4317 -81.7358 49° Northeast 491 565 27,800 -1,920 Descending Cleveland Center
10:23PM 39.5122 -81.6136 50° Northeast 453 521 25,900 -1,800 Descending Cleveland Center
10:24PM 39.5989 -81.4803 49° Northeast 441 507 24,200 -2,280 Descending Cleveland Center
10:25PM 39.6767 -81.3625 50° Northeast 426 490 21,400 -2,700 Descending Cleveland Center
10:26PM 39.7506 -81.2472 51° Northeast 421 484 18,900 -2,400 Descending Cleveland Center
10:27PM 39.8197 -81.1344 51° Northeast 416 479 16,700 -2,220 Descending Cleveland Center
10:28PM 39.8869 -81.0267 49° Northeast 397 457 14,500 -1,560 Descending Cleveland Center
10:29PM 39.9561 -80.9217 53° Northeast 386 444 13,600 -1,140 Descending Cleveland Center
10:30PM 40.0211 -80.8108 56° Northeast 381 438 12,300 -1,740 Descending Cleveland Center
10:31PM 40.0775 -80.7025 56° Northeast 371 427 10,200 -1,140 Descending Cleveland Center
10:32PM 40.1339 -80.5939 56° Northeast 361 415 10,100 -60 Descending Cleveland Center
10:33PM 40.1900 -80.4853 54° Northeast 361 415 10,100  Level Cleveland Center
10:34PM 40.2464 -80.3819 56° Northeast 356 410 10,100 -600 Level Cleveland Center
10:35PM 40.2939 -80.2892 59° Northeast 328 377 8,900 -1,800 Descending Cleveland Center
10:36PM 40.3333 -80.2044 58° Northeast 296 341 6,600 -1,740 Descending Cleveland Center
10:37PM 40.3706 -80.1253 69° East 265 305 5,500 -1,080 Descending Cleveland Center
10:37PM 40.3817 -80.0872 88° East 221 254 5,000 -660 Descending FAA TRACON SMA TRACON (SMA)
10:38PM 40.3831 -80.0367 41° Northeast 213 245 4,700 -720 Descending FAA TRACON SMA TRACON (SMA)
10:38PM 40.4031 -80.0136 323° Northwest 164 189 4,100 -900 Descending FAA TRACON SMA TRACON (SMA)
10:39PM 40.4289 -80.0389 322° Northwest 163 188 3,500 -720 Descending FAA TRACON SMA TRACON (SMA)
10:40PM 40.4522 -80.0628 318° Northwest 153 176 3,200 -480 Descending FAA TRACON SMA TRACON (SMA)
10:40PM 40.4733 -80.0881 318° Northwest 156 180 2,900 -480 Descending FAA TRACON SMA TRACON (SMA)